createdAt,value
2024-05-09T06:46:34.171Z,102592.81
2024-05-09T06:49:23.832Z,102594.81
2024-05-09T06:52:01.920Z,102578.16
2024-05-09T06:55:01.581Z,102591.38
2024-05-09T06:57:43.003Z,102595.69
2024-05-09T07:00:30.624Z,102588.78
2024-05-09T07:07:21.128Z,102595.41
2024-05-09T07:09:54.572Z,102580.28
2024-05-09T07:12:31.042Z,102593.28
2024-05-09T07:15:33.247Z,102600.13
2024-05-09T07:18:23.808Z,102587.91
2024-05-09T07:21:09.248Z,102597.00
2024-05-09T07:32:36.810Z,102605.63
2024-05-09T07:39:25.407Z,102602.28
2024-05-09T07:47:52.299Z,102602.69
2024-05-09T07:51:32.160Z,102601.03
2024-05-09T07:53:33.952Z,102586.19
2024-05-09T07:55:32.720Z,102597.75
2024-05-09T07:58:10.155Z,102581.81
2024-05-09T08:00:43.358Z,102573.50
2024-05-09T08:03:16.979Z,102582.06
2024-05-09T08:05:51.830Z,102571.81
2024-05-09T08:08:25.350Z,102572.16
2024-05-09T08:10:58.578Z,102573.84
2024-05-09T08:13:31.762Z,102575.75
2024-05-09T08:16:06.135Z,102567.28
2024-05-09T08:18:39.714Z,102563.47
2024-05-09T08:21:12.957Z,102558.78
2024-05-09T08:23:46.067Z,102563.91
2024-05-09T08:26:19.234Z,102554.59
2024-05-09T08:28:52.608Z,102558.25
2024-05-09T08:31:26.061Z,102560.34
2024-05-09T08:39:53.950Z,102561.16
2024-05-09T08:42:44.233Z,102555.69
2024-05-09T08:45:21.868Z,102557.41
2024-05-09T08:48:01.629Z,102557.31
2024-05-09T08:50:42.184Z,102556.97
2024-05-09T09:13:48.254Z,102564.44
2024-05-09T09:17:46.547Z,102554.84
2024-05-09T09:20:26.354Z,102540.34
2024-05-09T09:23:09.266Z,102538.06
2024-05-09T09:25:42.899Z,102541.19
2024-05-09T09:28:23.420Z,102531.00
2024-05-09T09:31:49.537Z,102545.09
2024-05-09T09:46:40.196Z,102517.16
2024-05-09T09:49:24.694Z,102525.38
2024-05-09T09:51:58.681Z,102513.94
2024-05-09T09:54:31.946Z,102524.56
2024-05-09T09:57:07.649Z,102514.38
2024-05-09T09:59:46.976Z,102514.31
2024-05-09T10:02:20.321Z,102517.84
2024-05-09T10:04:54.302Z,102498.13
2024-05-09T10:07:30.822Z,102492.34
2024-05-09T10:10:16.125Z,102507.69
2024-05-09T10:15:54.579Z,102511.88
2024-05-09T10:18:38.570Z,102513.28
2024-05-09T10:21:19.407Z,102497.66
2024-05-09T10:24:09.505Z,102492.69
2024-05-09T10:26:42.648Z,102506.13
2024-05-09T10:29:18.526Z,102485.03
2024-05-09T10:31:51.716Z,102498.41
2024-05-09T10:34:25.249Z,102493.38
2024-05-09T10:37:04.182Z,102498.09
2024-05-09T10:39:40.292Z,102493.56
2024-05-09T10:42:13.285Z,102498.25
2024-05-09T10:44:49.546Z,102499.31
2024-05-09T10:47:24.068Z,102489.47
2024-05-09T10:49:59.908Z,102481.09
2024-05-09T10:52:35.264Z,102486.56
2024-05-09T10:55:09.053Z,102496.50
2024-05-09T10:57:48.377Z,102493.38
2024-05-09T11:00:27.735Z,102480.50
2024-05-09T11:03:12.435Z,102493.34
2024-05-09T11:05:47.624Z,102484.84
2024-05-09T11:08:48.270Z,102493.66
2024-05-09T11:11:21.599Z,102486.03
2024-05-09T11:13:57.867Z,102481.81
2024-05-09T11:16:32.056Z,102466.97
2024-05-09T11:19:05.199Z,102454.88
2024-05-09T11:21:38.824Z,102463.44
2024-05-09T11:24:12.397Z,102468.69
2024-05-09T11:26:45.384Z,102454.06
2024-05-09T11:29:19.750Z,102460.06
2024-05-09T11:31:53.293Z,102446.16
2024-05-09T11:34:26.443Z,102448.31
2024-05-09T11:37:13.975Z,102450.56
2024-05-09T11:39:47.307Z,102450.47
2024-05-09T11:42:22.580Z,102430.44
2024-05-09T11:45:06.396Z,102442.59
2024-05-09T11:47:40.140Z,102442.00
2024-05-09T11:50:19.533Z,102440.81
2024-05-09T11:52:59.984Z,102421.94
2024-05-09T11:55:36.864Z,102429.81
2024-05-09T11:58:12.498Z,102423.16
2024-05-09T12:00:46.578Z,102411.09
2024-05-09T12:03:20.873Z,102427.94
2024-05-09T12:05:54.086Z,102423.38
2024-05-09T12:08:27.532Z,102418.84
2024-05-09T12:11:01.217Z,102422.34
2024-05-09T12:13:34.325Z,102418.09
2024-05-09T12:16:08.071Z,102415.22
2024-05-09T12:18:41.064Z,102418.09
2024-05-09T12:21:17.165Z,102404.81
2024-05-09T12:23:50.133Z,102403.34
2024-05-09T12:26:23.250Z,102411.09
2024-05-09T12:28:56.238Z,102395.09
2024-05-09T12:31:29.244Z,102383.25
2024-05-09T12:34:02.455Z,102387.59
2024-05-09T12:36:36.154Z,102387.59
2024-05-09T12:39:12.201Z,102384.38
2024-05-09T12:41:45.293Z,102366.19
2024-05-09T12:44:18.290Z,102351.13
2024-05-09T12:46:51.453Z,102356.59
2024-05-09T12:49:24.742Z,102347.13
2024-05-09T12:51:57.823Z,102355.00
2024-05-09T12:54:33.875Z,102354.19
2024-05-09T12:57:07.122Z,102349.19
2024-05-09T12:59:42.703Z,102360.06
2024-05-09T13:02:15.936Z,102356.09
2024-05-09T13:04:49.281Z,102354.25
2024-05-09T13:07:22.651Z,102364.53
2024-05-09T13:09:55.764Z,102354.47
2024-05-09T13:12:28.843Z,102369.16
2024-05-09T13:15:01.891Z,102347.97
2024-05-09T13:17:34.994Z,102347.06
2024-05-09T13:20:14.925Z,102355.47
2024-05-09T13:22:52.047Z,102343.63
2024-05-09T13:25:25.141Z,102336.88
2024-05-09T13:27:58.514Z,102327.22
2024-05-09T13:30:39.283Z,102316.38
2024-05-09T13:33:15.023Z,102324.13
2024-05-09T13:35:50.605Z,102316.25
2024-05-09T13:38:24.310Z,102314.13
2024-05-09T13:40:57.398Z,102329.88
2024-05-09T13:43:30.523Z,102316.97
2024-05-09T13:46:04.507Z,102314.69
2024-05-09T13:48:37.853Z,102318.41
2024-05-09T13:51:10.955Z,102306.44
2024-05-09T13:53:44.011Z,102320.97
2024-05-09T13:56:17.077Z,102311.34
2024-05-09T13:58:51.241Z,102305.91
2024-05-09T14:01:25.608Z,102308.28
2024-05-09T14:04:01.510Z,102310.94
2024-05-09T15:04:40.347Z,102267.84
2024-05-09T15:07:14.653Z,102266.66
2024-05-09T15:09:48.438Z,102253.22
2024-05-09T15:12:21.954Z,102255.25
2024-05-09T15:14:54.998Z,102246.03
2024-05-09T15:17:28.730Z,102251.66
2024-05-09T15:20:02.136Z,102261.81
2024-05-09T15:22:36.215Z,102245.22
2024-05-09T15:25:11.510Z,102257.19
2024-05-09T15:27:55.622Z,102243.00
2024-05-09T15:30:33.403Z,102227.06
2024-05-09T15:33:08.170Z,102241.66
2024-05-09T15:35:47.332Z,102229.41
2024-05-09T15:38:27.734Z,102250.00
2024-05-09T15:41:04.069Z,102243.63
2024-05-09T15:43:39.880Z,102230.50
2024-05-09T15:46:25.221Z,102223.72
2024-05-09T15:48:58.754Z,102217.41
2024-05-09T15:53:20.031Z,102245.44
2024-05-09T15:55:53.138Z,102237.66
2024-05-09T15:58:26.443Z,102225.13
2024-05-09T16:04:18.479Z,102239.59
2024-05-09T16:06:59.526Z,102221.88
2024-05-09T16:09:32.676Z,102225.75
2024-05-09T16:12:09.873Z,102237.72
2024-05-09T16:14:48.081Z,102244.91
2024-05-09T16:17:22.088Z,102212.28
2024-05-09T16:19:55.413Z,102216.78
2024-05-09T16:22:28.314Z,102207.56
2024-05-09T16:25:01.852Z,102203.84
2024-05-09T16:27:35.184Z,102206.06
2024-05-09T16:30:12.051Z,102205.84
2024-05-09T16:33:15.090Z,102227.41
2024-05-09T16:35:58.027Z,102202.78
2024-05-09T16:38:30.993Z,102214.91
2024-05-09T16:41:04.143Z,102226.44
2024-05-09T16:43:37.394Z,102212.59
2024-05-09T16:46:10.475Z,102225.47
2024-05-09T16:48:45.814Z,102212.56
2024-05-09T16:51:18.793Z,102225.91
2024-05-09T16:53:51.928Z,102216.28
2024-05-09T16:56:24.985Z,102217.47
2024-05-09T16:58:58.014Z,102224.41
2024-05-09T17:01:31.047Z,102212.94
2024-05-09T17:04:04.465Z,102210.59
2024-05-09T17:06:37.768Z,102213.28
2024-05-09T17:09:12.064Z,102206.31
2024-05-09T17:11:48.396Z,102195.97
2024-05-09T17:14:21.365Z,102195.63
2024-05-09T17:16:54.691Z,102204.81
2024-05-09T17:19:27.738Z,102183.00
2024-05-09T17:22:01.108Z,102191.50
2024-05-09T17:24:34.068Z,102182.53
2024-05-09T17:27:08.309Z,102193.06
2024-05-09T17:29:41.586Z,102184.03
2024-05-09T17:32:14.665Z,102165.22
2024-05-09T17:34:47.708Z,102187.06
2024-05-09T17:37:21.199Z,102181.34
2024-05-09T17:39:57.950Z,102186.38
2024-05-09T17:42:31.117Z,102161.53
2024-05-09T17:45:17.456Z,102164.97
2024-05-09T17:47:51.015Z,102156.78
2024-05-09T17:50:30.837Z,102158.38
2024-05-09T17:53:09.038Z,102171.78
2024-05-09T17:55:42.750Z,102168.16
2024-05-09T17:58:16.071Z,102166.56
2024-05-09T18:00:49.180Z,102166.50
2024-05-09T18:03:23.487Z,102154.84
2024-05-09T18:05:57.080Z,102169.16
2024-05-09T18:08:30.157Z,102150.41
2024-05-09T18:11:03.351Z,102162.38
2024-05-09T18:13:36.433Z,102164.22
2024-05-09T18:16:09.463Z,102168.31
2024-05-09T18:18:43.911Z,102162.25
2024-05-09T18:21:17.198Z,102150.59
2024-05-09T18:23:52.134Z,102160.84
2024-05-09T18:26:25.256Z,102175.34
2024-05-09T18:28:58.393Z,102143.38
2024-05-09T18:31:31.679Z,102165.19
2024-05-09T18:34:05.752Z,102145.28
2024-05-09T18:36:40.690Z,102150.25
2024-05-09T18:39:14.733Z,102137.16
2024-05-09T18:41:47.820Z,102147.66
2024-05-09T18:44:20.836Z,102153.41
2024-05-09T18:46:55.106Z,102150.91
2024-05-09T18:49:28.358Z,102171.81
2024-05-09T18:52:01.387Z,102158.97
2024-05-09T18:54:34.375Z,102158.34
2024-05-09T18:57:07.550Z,102154.34
2024-05-09T18:59:40.795Z,102171.25
2024-05-09T19:02:14.294Z,102160.13
2024-05-09T19:04:48.314Z,102157.56
2024-05-09T19:07:21.521Z,102146.69
2024-05-09T19:09:54.835Z,102159.13
2024-05-09T19:12:27.938Z,102163.09
2024-05-09T19:15:00.904Z,102169.56
2024-05-09T19:17:34.105Z,102149.25
2024-05-09T19:20:11.582Z,102182.50
2024-05-09T19:22:50.504Z,102161.06
2024-05-09T19:25:23.614Z,102172.34
2024-05-09T19:27:58.435Z,102178.81
2024-05-09T19:30:38.650Z,102158.16
2024-05-09T19:33:24.903Z,102166.09
2024-05-09T19:35:58.623Z,102157.53
2024-05-09T19:38:32.532Z,102170.59
2024-05-09T19:41:06.061Z,102166.69
2024-05-09T19:43:39.228Z,102177.34
2024-05-09T19:46:20.617Z,102162.16
2024-05-09T19:48:54.289Z,102168.94
2024-05-09T19:51:27.542Z,102174.16
2024-05-09T19:54:49.729Z,102182.44
2024-05-09T19:57:22.768Z,102166.72
2024-05-09T19:59:56.852Z,102165.19
2024-05-09T20:07:05.010Z,102166.44
2024-05-09T20:13:50.907Z,102156.66
2024-05-09T20:16:36.244Z,102141.00
2024-05-09T20:19:09.388Z,102164.34
2024-05-09T20:21:44.693Z,102160.84
2024-05-09T20:24:20.061Z,102171.91
2024-05-09T20:26:53.014Z,102176.66
2024-05-09T20:29:26.650Z,102171.91
2024-05-09T20:33:00.566Z,102179.81
2024-05-09T20:35:34.723Z,102164.06
2024-05-09T20:42:21.628Z,102153.09
2024-05-09T20:45:20.350Z,102183.47
2024-05-09T20:47:53.834Z,102170.44
2024-05-09T20:50:38.814Z,102183.50
2024-05-09T20:53:22.671Z,102164.16
2024-05-09T20:56:33.531Z,102187.03
2024-05-09T20:59:08.729Z,102165.72
2024-05-09T21:02:18.844Z,102187.84
2024-05-09T21:04:52.271Z,102189.41
2024-05-09T21:07:25.701Z,102182.31
2024-05-09T21:10:27.266Z,102201.28
2024-05-09T21:13:03.734Z,102197.31
2024-05-09T21:15:37.360Z,102178.38
2024-05-09T21:19:11.246Z,102206.78
2024-05-09T21:21:44.501Z,102196.53
2024-05-09T21:24:17.557Z,102191.78
2024-05-09T21:26:50.820Z,102190.22
2024-05-09T21:29:23.938Z,102194.94
2024-05-09T21:31:58.404Z,102190.22
2024-05-09T21:34:31.523Z,102207.56
2024-05-09T21:37:08.059Z,102199.69
2024-05-09T21:39:57.722Z,102210.34
2024-05-09T21:42:30.730Z,102183.88
2024-05-09T21:45:05.101Z,102179.16
2024-05-09T21:47:43.074Z,102197.69
2024-05-09T21:54:29.700Z,102175.19
2024-05-09T21:57:36.260Z,102215.47
2024-05-09T22:01:09.392Z,102207.56
2024-05-09T22:03:42.744Z,102181.53
2024-05-09T22:06:16.199Z,102181.13
2024-05-09T22:08:53.418Z,102189.00
2024-05-09T22:11:26.633Z,102174.78
2024-05-09T22:13:59.840Z,102190.97
2024-05-09T22:16:32.988Z,102181.13
2024-05-09T22:19:06.496Z,102183.44
2024-05-09T22:21:49.301Z,102190.16
2024-05-09T22:24:22.557Z,102178.28
2024-05-09T22:26:55.790Z,102185.38
2024-05-09T22:29:46.565Z,102198.81
2024-05-09T22:32:19.746Z,102200.38
2024-05-09T22:34:52.945Z,102185.75
2024-05-09T22:37:28.771Z,102186.13
2024-05-09T22:40:03.922Z,102188.50
2024-05-09T22:42:41.718Z,102188.88
2024-05-09T22:45:14.909Z,102201.09
2024-05-09T22:47:58.944Z,102202.66
2024-05-09T22:50:33.444Z,102176.63
2024-05-09T22:53:06.821Z,102175.81
2024-05-09T22:56:04.241Z,102205.38
2024-05-09T22:58:37.392Z,102190.00
2024-05-09T23:01:15.593Z,102185.25
2024-05-09T23:04:22.393Z,102199.03
2024-05-09T23:06:57.758Z,102189.16
2024-05-09T23:09:31.918Z,102178.09
2024-05-09T23:12:06.011Z,102193.09
2024-05-09T23:14:39.196Z,102179.28
2024-05-09T23:17:19.335Z,102201.34
2024-05-09T23:19:52.441Z,102198.19
2024-05-09T23:22:25.948Z,102183.97
2024-05-09T23:25:23.559Z,102198.53
2024-05-09T23:27:56.935Z,102176.50
2024-05-09T23:30:37.473Z,102173.34
2024-05-09T23:33:14.310Z,102183.19
2024-05-09T23:35:47.791Z,102190.72
2024-05-09T23:38:23.377Z,102182.03
2024-05-09T23:40:57.112Z,102180.88
2024-05-09T23:43:40.964Z,102176.53
2024-05-09T23:46:14.270Z,102179.69
2024-05-09T23:48:47.557Z,102170.22
2024-05-09T23:52:13.076Z,102187.19
2024-05-09T23:54:46.573Z,102167.91
2024-05-09T23:57:19.734Z,102165.53
